createdAt,value
2023-01-20T00:00:27.731Z,26.20
2023-01-20T00:02:54.603Z,25.50
2023-01-20T00:05:21.470Z,26.00
2023-01-20T00:07:48.246Z,27.30
2023-01-20T00:10:15.098Z,25.00
2023-01-20T00:12:41.802Z,25.50
2023-01-20T00:15:10.415Z,25.80
2023-01-20T00:17:37.276Z,26.00
2023-01-20T00:20:04.723Z,26.30
2023-01-20T00:22:31.615Z,25.80
2023-01-20T00:24:58.381Z,23.50
2023-01-20T00:27:25.081Z,28.10
2023-01-20T00:29:51.740Z,24.50
2023-01-20T00:32:18.630Z,25.30
2023-01-20T00:34:46.096Z,24.10
2023-01-20T00:37:12.892Z,25.90
2023-01-20T00:39:39.649Z,24.00
2023-01-20T00:42:06.507Z,24.60
2023-01-20T00:44:33.358Z,26.40
2023-01-20T00:47:00.228Z,25.70
2023-01-20T00:49:27.288Z,23.70
2023-01-20T00:51:54.177Z,24.00
2023-01-20T00:54:21.188Z,24.70
2023-01-20T00:56:47.972Z,24.50
2023-01-20T00:59:14.664Z,26.60
2023-01-20T01:01:41.997Z,25.60
2023-01-20T01:04:09.405Z,24.20
2023-01-20T01:06:36.271Z,24.30
2023-01-20T01:09:03.057Z,25.50
2023-01-20T01:11:29.863Z,26.00
2023-01-20T01:13:57.585Z,24.80
2023-01-20T01:16:24.471Z,24.50
2023-01-20T01:18:53.816Z,24.80
2023-01-20T01:21:20.818Z,25.40
2023-01-20T01:23:48.198Z,24.60
2023-01-20T01:26:14.951Z,24.20
2023-01-20T01:28:42.373Z,24.00
2023-01-20T01:31:09.280Z,25.40
2023-01-20T01:33:36.363Z,26.90
2023-01-20T01:36:04.287Z,26.70
2023-01-20T01:38:31.294Z,25.50
2023-01-20T01:40:58.176Z,26.20
2023-01-20T01:43:26.103Z,26.20
2023-01-20T01:45:53.193Z,24.20
2023-01-20T01:48:22.586Z,26.20
2023-01-20T01:51:03.450Z,26.30
2023-01-20T01:53:30.362Z,25.90
2023-01-20T01:55:59.691Z,24.80
2023-01-20T01:58:28.578Z,24.30
2023-01-20T02:00:55.405Z,24.40
2023-01-20T02:03:22.351Z,26.10
2023-01-20T02:05:49.675Z,25.70
2023-01-20T02:08:17.065Z,25.20
2023-01-20T02:10:43.901Z,25.90
2023-01-20T02:13:10.701Z,25.10
2023-01-20T02:16:12.745Z,25.00
2023-01-20T02:18:54.844Z,25.30
2023-01-20T02:21:48.831Z,25.90
2023-01-20T02:24:27.933Z,26.70
2023-01-20T02:27:15.381Z,24.80
2023-01-20T02:30:10.537Z,26.20
2023-01-20T02:32:39.010Z,26.00
2023-01-20T02:35:15.064Z,24.80
2023-01-20T02:37:50.082Z,25.50
2023-01-20T02:40:32.367Z,25.30
2023-01-20T02:43:21.257Z,23.80
2023-01-20T02:45:50.671Z,25.90
2023-01-20T02:48:34.200Z,25.70
2023-01-20T02:51:20.440Z,25.00
2023-01-20T02:53:49.679Z,25.60
2023-01-20T02:56:16.594Z,26.00
2023-01-20T02:58:47.983Z,25.00
2023-01-20T03:01:21.119Z,24.90
2023-01-20T03:03:48.096Z,24.90
2023-01-20T03:06:18.828Z,26.30
2023-01-20T03:08:45.589Z,25.20
2023-01-20T03:11:12.808Z,26.10
2023-01-20T03:13:50.790Z,27.60
2023-01-20T03:16:19.542Z,25.10
2023-01-20T03:18:46.544Z,26.10
2023-01-20T03:21:13.401Z,27.60
2023-01-20T03:23:42.843Z,26.20
2023-01-20T03:26:11.263Z,24.30
2023-01-20T03:28:38.127Z,26.30
2023-01-20T03:31:13.712Z,25.70
2023-01-20T03:33:40.601Z,26.50
2023-01-20T03:36:08.093Z,27.00
2023-01-20T03:38:34.891Z,28.70
2023-01-20T03:41:19.348Z,27.20
2023-01-20T03:43:55.602Z,26.70
2023-01-20T03:46:40.275Z,27.00
2023-01-20T03:49:15.822Z,25.00
2023-01-20T03:52:09.289Z,23.00
2023-01-20T03:54:45.395Z,26.40
2023-01-20T03:57:18.235Z,27.00
2023-01-20T03:59:45.078Z,25.50
2023-01-20T04:02:11.967Z,25.60
2023-01-20T04:04:40.417Z,23.30
2023-01-20T04:07:09.803Z,25.90
2023-01-20T04:09:39.594Z,23.90
2023-01-20T04:12:06.562Z,26.00
2023-01-20T04:14:35.867Z,26.30
2023-01-20T04:17:03.709Z,26.50
2023-01-20T04:19:30.502Z,24.70
2023-01-20T04:22:06.639Z,25.00
2023-01-20T04:24:34.934Z,25.10
2023-01-20T04:27:01.656Z,23.60
2023-01-20T04:29:28.441Z,26.00
2023-01-20T04:32:02.105Z,24.50
2023-01-20T04:34:28.923Z,24.10
2023-01-20T04:36:55.728Z,24.10
2023-01-20T04:39:22.592Z,25.30
2023-01-20T04:41:49.370Z,26.50
2023-01-20T04:44:16.135Z,24.70
2023-01-20T04:46:42.954Z,26.50
2023-01-20T04:49:11.304Z,23.30
2023-01-20T04:51:38.110Z,23.80
2023-01-20T04:54:04.951Z,25.50
2023-01-20T04:56:31.872Z,24.90
2023-01-20T04:58:59.217Z,23.80
2023-01-20T05:01:26.001Z,23.30
2023-01-20T05:03:52.923Z,24.10
2023-01-20T05:06:19.852Z,23.40
2023-01-20T05:08:46.627Z,24.20
2023-01-20T05:11:13.418Z,23.00
2023-01-20T05:13:40.506Z,24.10
2023-01-20T05:16:08.178Z,24.70
2023-01-20T05:18:35.543Z,25.10
2023-01-20T05:21:03.871Z,24.20
2023-01-20T05:23:30.696Z,23.90
2023-01-20T05:25:57.499Z,24.00
2023-01-20T05:28:24.508Z,22.30
2023-01-20T05:30:52.089Z,23.80
2023-01-20T05:33:18.923Z,24.10
2023-01-20T05:35:45.630Z,22.90
2023-01-20T05:38:12.483Z,22.60
2023-01-20T05:40:39.247Z,22.50
2023-01-20T05:43:05.980Z,23.00
2023-01-20T05:45:33.171Z,23.60
2023-01-20T05:48:00.133Z,23.30
2023-01-20T05:50:28.042Z,26.30
2023-01-20T05:52:54.806Z,23.30
2023-01-20T05:55:21.759Z,24.30
2023-01-20T05:57:48.508Z,25.30
2023-01-20T06:00:15.510Z,28.80
2023-01-20T06:02:42.353Z,26.90
2023-01-20T06:05:09.530Z,26.40
2023-01-20T06:07:36.368Z,25.20
2023-01-20T06:10:03.430Z,26.10
2023-01-20T06:12:30.148Z,26.90
2023-01-20T06:14:56.899Z,27.10
2023-01-20T06:17:23.938Z,24.90
2023-01-20T06:19:50.743Z,26.80
2023-01-20T06:22:19.776Z,24.80
2023-01-20T06:24:47.025Z,23.00
2023-01-20T06:27:13.924Z,25.70
2023-01-20T06:29:40.640Z,25.40
2023-01-20T06:32:07.358Z,25.00
2023-01-20T06:34:34.147Z,24.80
2023-01-20T06:37:02.234Z,23.40
2023-01-20T06:39:29.031Z,23.90
2023-01-20T06:41:59.742Z,25.80
2023-01-20T06:44:26.991Z,24.50
2023-01-20T06:46:54.817Z,25.50
2023-01-20T06:49:22.224Z,27.00
2023-01-20T06:51:49.690Z,30.30
2023-01-20T06:54:16.721Z,27.80
2023-01-20T06:56:43.677Z,28.50
2023-01-20T06:59:11.334Z,26.90
2023-01-20T07:01:38.462Z,27.20
2023-01-20T07:04:05.638Z,25.70
2023-01-20T07:06:38.621Z,24.40
2023-01-20T07:09:06.910Z,26.00
2023-01-20T07:11:35.325Z,26.60
2023-01-20T07:14:03.134Z,25.70
2023-01-20T07:16:30.031Z,26.30
2023-01-20T07:18:57.067Z,26.60
2023-01-20T07:21:26.242Z,26.60
2023-01-20T07:23:53.430Z,25.30
2023-01-20T07:26:21.877Z,24.80
2023-01-20T07:28:48.755Z,25.60
2023-01-20T07:31:19.384Z,28.40
2023-01-20T07:33:46.286Z,27.20
2023-01-20T07:36:14.214Z,28.20
2023-01-20T07:38:40.995Z,24.90
2023-01-20T07:41:16.480Z,31.60
2023-01-20T07:43:46.785Z,29.60
2023-01-20T07:46:13.789Z,29.30
2023-01-20T07:48:40.670Z,30.50
2023-01-20T07:51:09.520Z,28.00
2023-01-20T07:53:40.751Z,29.80
2023-01-20T07:56:10.338Z,27.00
2023-01-20T07:58:37.226Z,27.60
2023-01-20T08:01:15.347Z,28.60
2023-01-20T08:03:43.118Z,27.00
2023-01-20T09:31:00.848Z,30.00
2023-01-20T09:33:28.332Z,27.80
2023-01-20T09:35:55.883Z,29.10
2023-01-20T09:38:42.396Z,25.60
2023-01-20T09:41:27.615Z,30.20
2023-01-20T09:44:09.405Z,26.70
2023-01-20T09:47:18.773Z,26.80
2023-01-20T09:50:20.629Z,28.00
2023-01-20T09:53:06.018Z,32.20
2023-01-20T09:55:46.798Z,29.00
2023-01-20T09:58:16.067Z,31.90
2023-01-20T10:00:47.115Z,33.90
2023-01-20T10:05:43.036Z,26.70
2023-01-20T10:08:31.147Z,28.60
2023-01-20T10:11:05.698Z,25.50
2023-01-20T10:13:36.060Z,25.40
2023-01-20T10:16:06.170Z,24.90
2023-01-20T10:18:50.719Z,24.90
2023-01-20T10:21:25.454Z,24.50
2023-01-20T10:24:16.656Z,25.00
2023-01-20T10:26:48.766Z,25.40
2023-01-20T10:29:28.570Z,27.20
2023-01-20T10:32:00.639Z,25.80
2023-01-20T10:37:02.719Z,22.40
2023-01-20T10:39:34.787Z,24.90
2023-01-20T10:42:04.698Z,24.20
2023-01-20T10:44:35.656Z,25.40
2023-01-20T10:47:14.580Z,23.80
2023-01-20T10:49:42.539Z,26.20
2023-01-20T10:52:57.726Z,25.50
2023-01-20T10:55:59.990Z,25.20
2023-01-20T10:58:28.162Z,25.20
2023-01-20T11:00:55.522Z,24.40
2023-01-20T11:03:22.756Z,23.90
2023-01-20T11:05:50.567Z,24.30
2023-01-20T11:08:28.281Z,25.70
2023-01-20T11:11:00.193Z,24.30
2023-01-20T11:13:27.779Z,23.30
2023-01-20T11:15:56.959Z,25.30
2023-01-20T11:18:27.221Z,25.10
2023-01-20T11:21:00.840Z,24.30
2023-01-20T11:23:37.997Z,22.60
2023-01-20T11:26:10.658Z,25.80
2023-01-20T11:28:47.419Z,24.40
2023-01-20T11:31:15.525Z,23.40
2023-01-20T11:33:59.681Z,22.10
2023-01-20T11:36:27.036Z,22.60
2023-01-20T11:38:55.277Z,25.60
2023-01-20T11:41:26.666Z,24.10
2023-01-20T11:43:55.820Z,22.90
2023-01-20T11:46:33.363Z,25.90
2023-01-20T11:49:19.242Z,24.20
2023-01-20T11:51:49.115Z,24.00
2023-01-20T11:54:18.621Z,25.00
2023-01-20T11:56:46.405Z,22.30
2023-01-20T11:59:31.178Z,23.70
2023-01-20T12:02:03.883Z,24.60
2023-01-20T12:04:55.994Z,24.80
2023-01-20T12:07:31.943Z,24.80
2023-01-20T12:10:05.529Z,25.10
2023-01-20T12:12:38.106Z,24.60
2023-01-20T12:15:12.349Z,25.10
2023-01-20T12:17:48.283Z,23.80
2023-01-20T12:20:54.027Z,23.40
2023-01-20T12:23:57.547Z,24.00
2023-01-20T12:26:24.546Z,25.80
2023-01-20T12:29:24.100Z,25.20
2023-01-20T12:31:51.397Z,23.50
2023-01-20T12:34:23.929Z,23.50
2023-01-20T12:37:13.620Z,24.70
2023-01-20T12:39:42.203Z,25.00
2023-01-20T12:42:20.204Z,27.70
2023-01-20T12:44:59.569Z,28.40
2023-01-20T12:47:46.240Z,28.40
2023-01-20T12:50:33.876Z,29.00
2023-01-20T12:53:38.758Z,25.30
2023-01-20T12:56:15.820Z,24.30
2023-01-20T12:59:07.822Z,26.10
2023-01-20T13:02:18.300Z,25.70
2023-01-20T13:05:04.176Z,28.10
2023-01-20T13:07:57.429Z,28.10
2023-01-20T13:10:51.033Z,25.20
2023-01-20T13:13:51.654Z,24.20
2023-01-20T13:16:51.459Z,28.30
2023-01-20T13:19:37.283Z,34.70
2023-01-20T13:22:20.512Z,34.10
2023-01-20T13:24:50.075Z,37.00
2023-01-20T13:27:25.942Z,36.90
2023-01-20T13:30:00.191Z,35.10
2023-01-20T13:32:29.837Z,32.90
2023-01-20T13:34:56.713Z,28.00
2023-01-20T13:37:25.795Z,27.70
2023-01-20T13:39:54.003Z,28.00
2023-01-20T13:42:27.408Z,26.00
2023-01-20T13:45:12.698Z,27.20
2023-01-20T13:47:59.727Z,28.30
2023-01-20T13:50:33.992Z,28.80
2023-01-20T13:53:10.158Z,28.40
2023-01-20T13:55:45.413Z,31.50
2023-01-20T13:58:19.456Z,29.10
2023-01-20T14:00:48.499Z,34.10
2023-01-20T14:03:18.417Z,38.50
2023-01-20T14:05:55.072Z,33.10
2023-01-20T14:08:23.364Z,29.00
2023-01-20T14:10:50.100Z,27.70
2023-01-20T14:13:22.275Z,27.70
2023-01-20T14:15:51.308Z,25.80
2023-01-20T14:18:24.591Z,30.30
2023-01-20T14:21:01.693Z,30.70
2023-01-20T14:23:30.059Z,31.30
2023-01-20T14:26:11.003Z,33.70
2023-01-20T14:28:53.410Z,32.50
2023-01-20T14:33:52.285Z,36.00
2023-01-20T14:36:20.355Z,32.90
2023-01-20T14:38:58.617Z,30.30
2023-01-20T14:41:28.185Z,35.00
2023-01-20T14:43:55.260Z,33.90
2023-01-20T14:46:23.314Z,30.60
2023-01-20T14:48:50.850Z,35.00
2023-01-20T14:51:18.320Z,38.50
2023-01-20T14:53:46.136Z,40.90
2023-01-20T14:56:21.015Z,38.00
2023-01-20T14:58:48.605Z,36.40
2023-01-20T15:01:23.414Z,37.60
2023-01-20T15:03:57.719Z,36.60
2023-01-20T15:06:25.257Z,38.50
2023-01-20T15:09:06.069Z,42.70
2023-01-20T15:11:35.086Z,45.50
2023-01-20T15:14:01.636Z,44.70
2023-01-20T15:16:35.458Z,50.20
2023-01-20T15:19:22.155Z,50.40
2023-01-20T15:21:55.833Z,42.20
2023-01-20T15:24:30.742Z,43.40
2023-01-20T15:27:00.855Z,41.50
2023-01-20T15:29:34.956Z,39.30
2023-01-20T15:32:05.811Z,38.20
2023-01-20T15:34:32.799Z,35.70
2023-01-20T15:36:59.296Z,40.60
2023-01-20T15:39:29.948Z,42.90
2023-01-20T15:41:57.080Z,45.20
2023-01-20T15:44:24.705Z,44.20
2023-01-20T15:46:51.733Z,43.20
2023-01-20T15:49:18.603Z,41.30
2023-01-20T15:51:45.658Z,40.50
2023-01-20T15:54:13.204Z,43.80
2023-01-20T15:56:40.744Z,45.10
2023-01-20T15:59:15.734Z,45.90
2023-01-20T16:01:46.548Z,41.10
2023-01-20T16:04:13.174Z,40.30
2023-01-20T16:06:39.797Z,39.50
2023-01-20T16:09:22.275Z,37.50
2023-01-20T16:11:48.795Z,37.50
2023-01-20T16:14:16.170Z,36.30
2023-01-20T16:16:43.011Z,34.60
2023-01-20T16:19:14.066Z,33.40
2023-01-20T16:21:44.323Z,31.60
2023-01-20T16:24:12.348Z,31.80
2023-01-20T16:26:39.028Z,30.70
2023-01-20T16:29:05.829Z,30.90
2023-01-20T16:31:32.798Z,30.40
2023-01-20T16:41:40.677Z,33.30
2023-01-20T16:44:08.869Z,30.20
2023-01-20T16:46:35.654Z,29.80
2023-01-20T16:49:03.593Z,31.80
2023-01-20T16:51:30.886Z,29.30
2023-01-20T16:53:57.739Z,30.00
2023-01-20T16:56:26.203Z,29.50
2023-01-20T16:58:53.749Z,31.70
2023-01-20T17:01:23.664Z,32.00
2023-01-20T17:03:51.701Z,30.80
2023-01-20T17:06:19.924Z,32.70
2023-01-20T17:08:47.697Z,30.00
2023-01-20T17:11:21.735Z,30.80
2023-01-20T17:13:48.951Z,34.40
2023-01-20T17:16:15.967Z,30.40
2023-01-20T17:18:45.787Z,31.20
2023-01-20T17:21:13.507Z,28.50
2023-01-20T17:23:40.724Z,28.60
2023-01-20T17:26:08.600Z,26.90
2023-01-20T17:28:35.433Z,29.10
2023-01-20T17:31:03.010Z,29.30
2023-01-20T17:33:30.568Z,28.30
2023-01-20T17:35:58.774Z,28.80
2023-01-20T17:38:25.775Z,28.30
2023-01-20T17:40:52.720Z,28.90
2023-01-20T17:43:19.492Z,27.70
2023-01-20T17:45:46.270Z,28.70
2023-01-20T17:48:13.352Z,27.50
2023-01-20T17:50:40.428Z,30.60
2023-01-20T17:53:07.243Z,28.00
2023-01-20T17:55:34.098Z,28.20
2023-01-20T17:58:00.827Z,29.70
2023-01-20T18:00:27.602Z,29.20
2023-01-20T18:02:57.420Z,28.60
2023-01-20T18:05:24.204Z,30.00
2023-01-20T18:07:50.952Z,29.40
2023-01-20T18:10:18.037Z,30.00
2023-01-20T18:12:44.987Z,26.90
2023-01-20T18:15:11.827Z,30.90
2023-01-20T18:17:40.855Z,28.30
2023-01-20T18:20:09.832Z,28.80
2023-01-20T18:22:36.558Z,29.30
2023-01-20T18:25:03.656Z,27.90
2023-01-20T18:27:30.641Z,27.80
2023-01-20T18:29:57.387Z,27.70
2023-01-20T18:32:24.646Z,29.10
2023-01-20T18:34:51.380Z,27.60
2023-01-20T18:37:18.074Z,26.70
2023-01-20T18:39:44.866Z,26.70
2023-01-20T18:42:11.901Z,28.70
2023-01-20T18:44:38.611Z,28.70
2023-01-20T18:47:05.509Z,27.60
2023-01-20T18:49:32.251Z,26.60
2023-01-20T18:51:59.147Z,26.60
2023-01-20T18:54:26.448Z,26.40
2023-01-20T18:56:53.457Z,29.10
2023-01-20T18:59:20.705Z,27.20
2023-01-20T19:01:48.513Z,26.80
2023-01-20T19:04:15.587Z,27.80
2023-01-20T19:06:44.285Z,25.90
2023-01-20T19:09:11.283Z,27.70
2023-01-20T19:11:42.057Z,28.60
2023-01-20T19:14:11.786Z,35.00
2023-01-20T19:16:40.393Z,37.20
2023-01-20T19:19:07.126Z,49.90
2023-01-20T19:21:34.224Z,57.70
2023-01-20T19:24:05.991Z,68.10
2023-01-20T19:26:35.836Z,69.80
2023-01-20T19:29:05.788Z,67.60
2023-01-20T19:31:34.373Z,64.30
2023-01-20T19:34:01.388Z,65.80
2023-01-20T19:36:28.454Z,56.80
2023-01-20T19:38:55.286Z,61.30
2023-01-20T19:41:28.056Z,60.70
2023-01-20T19:43:57.398Z,57.80
2023-01-20T19:46:28.261Z,64.00
2023-01-20T19:48:56.808Z,56.20
2023-01-20T19:51:24.083Z,42.10
2023-01-20T19:53:55.732Z,37.30
2023-01-20T19:56:22.767Z,32.20
2023-01-20T19:58:51.771Z,29.60
2023-01-20T20:01:25.941Z,29.00
2023-01-20T20:03:54.284Z,26.00
2023-01-20T20:06:28.622Z,24.90
2023-01-20T20:09:10.009Z,27.70
2023-01-20T20:11:37.108Z,29.90
2023-01-20T20:14:05.371Z,35.30
2023-01-20T20:16:33.733Z,39.90
2023-01-20T20:19:00.753Z,46.10
2023-01-20T20:21:27.625Z,42.00
2023-01-20T20:23:58.845Z,46.50
2023-01-20T20:26:27.888Z,44.20
2023-01-20T20:28:54.748Z,37.40
2023-01-20T20:31:22.796Z,28.60
2023-01-20T20:33:49.909Z,28.00
2023-01-20T20:36:16.985Z,26.10
2023-01-20T20:38:45.124Z,24.80
2023-01-20T20:41:12.139Z,22.40
2023-01-20T20:43:39.174Z,21.40
2023-01-20T20:46:06.971Z,22.50
2023-01-20T20:48:35.324Z,24.10
2023-01-20T20:51:10.251Z,21.70
2023-01-20T20:53:37.008Z,23.30
2023-01-20T20:56:14.810Z,27.40
2023-01-20T20:58:59.487Z,26.50
2023-01-20T21:01:28.131Z,35.40
2023-01-20T21:03:57.632Z,37.30
2023-01-20T21:06:24.892Z,40.60
2023-01-20T21:08:52.147Z,47.80
2023-01-20T21:11:21.234Z,48.00
2023-01-20T21:13:51.180Z,52.60
2023-01-20T21:16:21.895Z,49.30
2023-01-20T21:18:49.702Z,48.00
2023-01-20T21:21:19.575Z,51.20
2023-01-20T21:23:50.743Z,50.50
2023-01-20T21:26:17.537Z,49.60
2023-01-20T21:28:44.541Z,46.50
2023-01-20T21:31:16.074Z,34.50
2023-01-20T21:33:43.423Z,22.20
2023-01-20T21:36:12.404Z,20.80
2023-01-20T21:38:41.702Z,19.70
2023-01-20T21:41:10.136Z,19.40
2023-01-20T21:44:00.448Z,19.20
2023-01-20T21:46:28.073Z,21.30
2023-01-20T21:49:13.729Z,18.60
2023-01-20T21:51:59.452Z,19.70
2023-01-20T21:54:30.337Z,20.30
2023-01-20T21:56:57.143Z,18.90
2023-01-20T21:59:23.924Z,19.50
2023-01-20T22:01:50.811Z,19.60
2023-01-20T22:04:17.787Z,19.10
2023-01-20T22:06:44.751Z,19.50
2023-01-20T22:09:11.846Z,21.80
2023-01-20T22:11:38.633Z,18.80
2023-01-20T22:14:05.460Z,22.90
2023-01-20T22:16:32.440Z,23.60
2023-01-20T22:18:59.348Z,24.60
2023-01-20T22:21:26.871Z,23.10
2023-01-20T22:23:54.354Z,21.70
2023-01-20T22:26:21.264Z,19.10
2023-01-20T22:28:48.142Z,19.50
2023-01-20T22:31:19.811Z,19.40
2023-01-20T22:33:51.760Z,19.90
2023-01-20T22:36:19.672Z,22.10
2023-01-20T22:38:46.461Z,21.00
2023-01-20T22:41:14.394Z,20.10
2023-01-20T22:43:44.310Z,22.10
2023-01-20T22:46:13.476Z,17.90
2023-01-20T22:48:40.681Z,18.80
2023-01-20T22:51:14.813Z,19.50
2023-01-20T22:53:41.854Z,19.40
2023-01-20T22:56:12.253Z,18.50
2023-01-20T22:58:39.516Z,16.20
2023-01-20T23:01:14.835Z,20.30
2023-01-20T23:03:42.055Z,22.60
2023-01-20T23:06:09.055Z,17.70
2023-01-20T23:08:35.911Z,17.20
2023-01-20T23:11:05.615Z,18.10
2023-01-20T23:13:32.606Z,17.00
2023-01-20T23:15:59.291Z,18.10
2023-01-20T23:18:26.240Z,17.50
2023-01-20T23:20:53.846Z,16.70
2023-01-20T23:23:21.613Z,20.00
2023-01-20T23:25:48.517Z,18.50
2023-01-20T23:28:15.460Z,17.30
2023-01-20T23:30:42.441Z,16.60
2023-01-20T23:33:09.861Z,16.90
2023-01-20T23:35:39.151Z,17.40
2023-01-20T23:38:06.954Z,17.30
2023-01-20T23:40:34.909Z,17.80
2023-01-20T23:43:01.798Z,17.00
2023-01-20T23:45:28.922Z,15.70
2023-01-20T23:47:55.862Z,15.10
2023-01-20T23:50:22.837Z,15.70
2023-01-20T23:52:49.788Z,15.00
2023-01-20T23:55:16.707Z,15.80
2023-01-20T23:57:43.434Z,20.80
